createdAt,value
2019-03-06T00:02:05.244Z,9.73
2019-03-06T00:04:35.387Z,12.40
2019-03-06T00:07:05.007Z,11.57
2019-03-06T00:09:34.953Z,7.63
2019-03-06T00:12:04.798Z,18.10
2019-03-06T00:14:38.822Z,10.73
2019-03-06T00:17:09.189Z,12.77
2019-03-06T00:19:42.272Z,10.47
2019-03-06T00:22:13.162Z,9.03
2019-03-06T00:24:54.212Z,15.90
2019-03-06T00:27:24.427Z,9.40
2019-03-06T00:29:56.253Z,11.53
2019-03-06T00:32:26.197Z,10.60
2019-03-06T00:34:57.828Z,10.07
2019-03-06T00:37:27.324Z,13.50
2019-03-06T00:40:04.212Z,18.43
2019-03-06T00:42:36.556Z,10.80
2019-03-06T00:45:08.270Z,11.17
2019-03-06T00:47:38.186Z,12.57
2019-03-06T00:50:08.098Z,9.10
2019-03-06T00:52:38.355Z,8.83
2019-03-06T00:55:08.123Z,10.70
2019-03-06T00:57:37.586Z,19.00
2019-03-06T01:00:08.232Z,8.97
2019-03-06T01:02:38.665Z,13.37
2019-03-06T01:05:08.532Z,15.50
2019-03-06T01:07:38.485Z,13.30
2019-03-06T01:10:14.515Z,9.83
2019-03-06T01:12:44.524Z,11.03
2019-03-06T01:15:15.274Z,11.53
2019-03-06T01:17:45.480Z,9.53
2019-03-06T01:20:15.570Z,13.00
2019-03-06T01:22:45.981Z,11.37
2019-03-06T01:25:16.209Z,12.47
2019-03-06T01:27:46.161Z,14.40
2019-03-06T01:30:17.398Z,9.90
2019-03-06T01:33:02.606Z,12.73
2019-03-06T01:36:05.280Z,17.23
2019-03-06T01:41:36.255Z,16.67
2019-03-06T01:44:38.605Z,18.87
2019-03-06T01:47:09.629Z,16.23
2019-03-06T01:49:40.744Z,14.83
2019-03-06T01:52:21.227Z,15.43
2019-03-06T01:54:51.106Z,14.80
2019-03-06T01:57:22.574Z,17.03
2019-03-06T01:59:53.721Z,19.73
2019-03-06T02:02:24.985Z,13.83
2019-03-06T02:05:02.425Z,16.43
2019-03-06T02:07:33.581Z,13.87
2019-03-06T02:10:03.214Z,14.90
2019-03-06T02:12:33.024Z,21.37
2019-03-06T02:15:03.530Z,16.70
2019-03-06T02:17:36.549Z,19.20
2019-03-06T02:20:07.552Z,17.33
2019-03-06T02:22:38.500Z,17.30
2019-03-06T02:25:09.041Z,22.40
2019-03-06T02:27:39.941Z,19.93
2019-03-06T02:30:16.858Z,21.57
2019-03-06T02:32:46.465Z,18.77
2019-03-06T02:35:37.721Z,20.57
2019-03-06T02:38:47.351Z,17.17
2019-03-06T02:44:20.633Z,18.07
2019-03-06T02:50:46.402Z,17.60
2019-03-06T02:53:30.853Z,21.40
2019-03-06T02:56:00.838Z,22.37
2019-03-06T02:58:55.907Z,22.47
2019-03-06T03:01:46.287Z,23.07
2019-03-06T03:04:49.228Z,19.80
2019-03-06T03:07:37.931Z,22.93
2019-03-06T03:10:08.310Z,22.77
2019-03-06T03:12:38.702Z,20.90
2019-03-06T03:15:29.004Z,18.50
2019-03-06T03:18:17.599Z,20.27
2019-03-06T03:21:06.270Z,24.40
2019-03-06T03:23:45.133Z,26.03
2019-03-06T03:26:14.780Z,26.50
2019-03-06T03:28:51.411Z,22.40
2019-03-06T03:31:20.946Z,18.83
2019-03-06T03:33:51.050Z,20.60
2019-03-06T03:36:20.435Z,21.07
2019-03-06T03:38:50.477Z,20.90
2019-03-06T03:41:21.261Z,25.83
2019-03-06T03:43:51.099Z,23.97
2019-03-06T03:46:20.691Z,23.37
2019-03-06T03:48:50.514Z,20.83
2019-03-06T03:51:20.394Z,26.63
2019-03-06T03:53:50.841Z,25.43
2019-03-06T03:56:20.402Z,24.07
2019-03-06T03:58:50.162Z,24.17
2019-03-06T04:01:20.145Z,25.63
2019-03-06T04:03:49.558Z,26.73
2019-03-06T04:06:19.846Z,25.27
2019-03-06T04:08:49.782Z,24.10
2019-03-06T04:11:19.715Z,24.93
2019-03-06T04:13:49.511Z,22.77
2019-03-06T04:16:20.128Z,20.73
2019-03-06T04:18:49.945Z,28.50
2019-03-06T04:21:19.806Z,21.20
2019-03-06T04:23:50.107Z,26.90
2019-03-06T04:26:20.080Z,21.43
2019-03-06T04:28:49.959Z,21.60
2019-03-06T04:31:19.403Z,22.67
2019-03-06T04:33:49.475Z,25.10
2019-03-06T04:36:19.399Z,20.57
2019-03-06T04:38:49.938Z,22.27
2019-03-06T04:41:20.002Z,24.83
2019-03-06T04:43:50.734Z,24.37
2019-03-06T04:46:20.616Z,21.60
2019-03-06T04:48:50.233Z,22.77
2019-03-06T04:51:19.804Z,22.10
2019-03-06T04:54:00.554Z,19.57
2019-03-06T04:56:30.979Z,24.53
2019-03-06T04:59:00.559Z,22.00
2019-03-06T05:01:30.475Z,19.00
2019-03-06T05:04:00.491Z,20.60
2019-03-06T05:06:30.770Z,26.13
2019-03-06T05:09:00.727Z,28.63
2019-03-06T05:11:30.699Z,18.00
2019-03-06T05:14:01.059Z,22.07
2019-03-06T05:17:01.460Z,20.90
2019-03-06T05:19:31.537Z,21.00
2019-03-06T05:22:01.316Z,20.13
2019-03-06T05:24:31.643Z,18.43
2019-03-06T05:27:01.273Z,19.90
2019-03-06T05:29:31.594Z,18.03
2019-03-06T05:32:32.625Z,25.80
2019-03-06T05:35:22.574Z,21.83
2019-03-06T05:38:28.732Z,18.07
2019-03-06T05:40:58.597Z,18.00
2019-03-06T05:43:28.537Z,19.40
2019-03-06T05:45:59.022Z,16.83
2019-03-06T05:48:29.081Z,19.60
2019-03-06T05:50:59.469Z,18.30
2019-03-06T05:53:29.691Z,18.70
2019-03-06T05:55:59.475Z,17.37
2019-03-06T05:58:29.145Z,17.80
2019-03-06T06:00:58.699Z,17.30
2019-03-06T06:03:28.370Z,22.93
2019-03-06T06:05:58.139Z,15.23
2019-03-06T06:08:27.851Z,18.17
2019-03-06T06:10:57.454Z,16.37
2019-03-06T06:13:27.705Z,17.17
2019-03-06T06:15:57.357Z,20.70
2019-03-06T06:18:27.885Z,17.90
2019-03-06T06:21:16.306Z,22.53
2019-03-06T06:23:52.827Z,13.80
2019-03-06T06:26:23.190Z,16.73
2019-03-06T06:28:54.257Z,16.43
2019-03-06T06:31:24.571Z,20.17
2019-03-06T06:33:54.998Z,16.03
2019-03-06T06:36:24.477Z,17.90
2019-03-06T06:38:54.614Z,17.13
2019-03-06T06:41:24.598Z,16.23
2019-03-06T06:43:55.209Z,14.53
2019-03-06T06:46:25.129Z,14.73
2019-03-06T06:48:55.391Z,15.20
2019-03-06T06:52:17.611Z,14.40
2019-03-06T06:55:40.198Z,16.97
2019-03-06T06:58:54.738Z,9.37
2019-03-06T07:02:25.410Z,15.03
2019-03-06T07:05:14.056Z,10.83
2019-03-06T07:08:02.623Z,11.07
2019-03-06T07:10:49.945Z,12.97
2019-03-06T07:13:26.532Z,11.70
2019-03-06T07:16:14.062Z,13.00
2019-03-06T07:19:02.962Z,11.40
2019-03-06T07:21:43.432Z,10.27
2019-03-06T07:24:38.549Z,13.50
2019-03-06T07:27:18.662Z,11.07
2019-03-06T07:30:07.789Z,14.50
2019-03-06T07:32:56.701Z,13.03
2019-03-06T07:36:19.992Z,11.73
2019-03-06T07:38:55.348Z,13.57
2019-03-06T07:41:43.525Z,12.60
2019-03-06T07:44:33.185Z,10.50
2019-03-06T07:47:30.799Z,11.23
2019-03-06T07:50:25.494Z,11.10
2019-03-06T07:53:48.394Z,11.63
2019-03-06T07:56:34.019Z,12.40
2019-03-06T07:59:03.513Z,11.43
2019-03-06T08:01:36.720Z,14.23
2019-03-06T08:04:13.095Z,12.10
2019-03-06T08:06:46.207Z,12.40
2019-03-06T08:09:19.333Z,14.93
2019-03-06T08:12:17.638Z,14.33
2019-03-06T08:15:01.274Z,14.67
2019-03-06T08:18:05.790Z,14.50
2019-03-06T08:20:49.878Z,14.73
2019-03-06T08:23:45.569Z,13.77
2019-03-06T08:26:16.625Z,14.07
2019-03-06T08:28:49.366Z,14.20
2019-03-06T08:31:40.218Z,14.33
2019-03-06T08:34:09.828Z,15.30
2019-03-06T08:36:41.505Z,10.57
2019-03-06T08:39:23.679Z,11.53
2019-03-06T08:41:57.286Z,8.93
2019-03-06T08:44:27.198Z,11.77
2019-03-06T08:47:21.883Z,11.77
2019-03-06T08:50:32.541Z,8.90
2019-03-06T08:53:14.503Z,10.60
2019-03-06T08:56:02.512Z,12.07
2019-03-06T08:59:00.315Z,12.57
2019-03-06T09:08:29.934Z,12.03
2019-03-06T09:11:07.066Z,10.27
2019-03-06T09:14:11.156Z,11.87
2019-03-06T09:16:59.091Z,12.80
2019-03-06T09:19:50.695Z,15.13
2019-03-06T09:22:38.031Z,13.13
2019-03-06T09:25:39.111Z,12.00
2019-03-06T09:28:24.588Z,13.33
2019-03-06T09:31:07.712Z,12.53
2019-03-06T09:33:59.923Z,12.93
2019-03-06T09:36:34.793Z,9.73
2019-03-06T09:39:26.320Z,12.67
2019-03-06T09:42:18.572Z,12.17
2019-03-06T09:44:54.147Z,13.40
2019-03-06T09:48:01.480Z,13.10
2019-03-06T09:50:59.107Z,14.97
2019-03-06T09:53:43.749Z,13.73
2019-03-06T09:56:26.819Z,18.87
2019-03-06T09:59:18.276Z,13.63
2019-03-06T10:02:06.790Z,11.87
2019-03-06T10:04:50.674Z,13.63
2019-03-06T10:07:57.916Z,16.57
2019-03-06T10:10:47.772Z,14.70
2019-03-06T10:13:52.184Z,16.67
2019-03-06T10:16:48.799Z,17.40
2019-03-06T10:19:19.906Z,16.87
2019-03-06T10:21:49.838Z,13.63
2019-03-06T10:24:19.425Z,13.70
2019-03-06T10:26:49.891Z,15.07
2019-03-06T10:29:20.153Z,15.83
2019-03-06T10:31:53.407Z,17.00
2019-03-06T10:34:24.186Z,13.73
2019-03-06T10:36:55.455Z,15.57
2019-03-06T10:39:25.049Z,16.57
2019-03-06T10:41:58.950Z,15.20
2019-03-06T10:44:30.074Z,15.83
2019-03-06T10:47:00.114Z,15.73
2019-03-06T10:49:30.429Z,15.93
2019-03-06T10:52:00.062Z,14.13
2019-03-06T10:57:19.028Z,14.10
2019-03-06T10:59:48.783Z,15.17
2019-03-06T11:02:18.776Z,11.60
2019-03-06T11:05:04.509Z,12.23
2019-03-06T11:07:35.689Z,11.87
2019-03-06T11:10:06.640Z,18.10
2019-03-06T11:12:37.142Z,17.37
2019-03-06T11:15:09.358Z,11.57
2019-03-06T11:17:39.103Z,11.37
2019-03-06T11:20:13.234Z,10.83
2019-03-06T11:22:43.626Z,14.43
2019-03-06T11:25:15.018Z,12.57
2019-03-06T11:27:45.264Z,11.70
2019-03-06T11:33:44.213Z,11.33
2019-03-06T11:36:14.722Z,9.93
2019-03-06T11:38:44.718Z,9.47
2019-03-06T11:41:14.864Z,14.23
2019-03-06T11:43:45.460Z,11.03
2019-03-06T11:46:17.998Z,11.17
2019-03-06T11:48:52.855Z,14.73
2019-03-06T11:51:22.869Z,8.83
2019-03-06T11:53:53.371Z,13.53
2019-03-06T11:56:23.739Z,10.80
2019-03-06T11:58:53.841Z,8.80
2019-03-06T12:01:25.017Z,9.70
2019-03-06T12:03:55.494Z,12.20
2019-03-06T12:06:25.230Z,9.93
2019-03-06T12:08:55.258Z,9.57
2019-03-06T12:11:33.719Z,8.13
2019-03-06T12:14:00.883Z,10.93
2019-03-06T12:16:31.160Z,10.47
2019-03-06T12:19:06.583Z,11.90
2019-03-06T12:21:36.488Z,8.97
2019-03-06T12:24:08.598Z,9.13
2019-03-06T12:26:41.160Z,8.10
2019-03-06T12:29:12.130Z,7.87
2019-03-06T12:31:42.261Z,8.10
2019-03-06T12:34:13.344Z,6.63
2019-03-06T12:36:44.222Z,6.67
2019-03-06T12:39:13.770Z,8.37
2019-03-06T12:41:45.626Z,6.20
2019-03-06T12:44:16.161Z,8.93
2019-03-06T12:46:49.918Z,6.97
2019-03-06T12:49:20.150Z,7.17
2019-03-06T12:51:54.329Z,6.73
2019-03-06T12:54:22.026Z,13.63
2019-03-06T12:56:51.875Z,8.37
2019-03-06T12:59:21.396Z,7.73
2019-03-06T13:01:51.034Z,6.57
2019-03-06T13:04:21.129Z,7.20
2019-03-06T13:06:50.981Z,7.20
2019-03-06T13:09:22.552Z,6.07
2019-03-06T13:11:52.419Z,9.13
2019-03-06T13:14:23.024Z,7.80
2019-03-06T13:16:53.591Z,5.77
2019-03-06T13:19:23.152Z,11.23
2019-03-06T13:21:53.299Z,6.00
2019-03-06T13:24:23.659Z,5.93
2019-03-06T13:26:54.150Z,7.47
2019-03-06T13:29:25.809Z,6.13
2019-03-06T13:31:59.161Z,6.80
2019-03-06T13:34:51.504Z,4.43
2019-03-06T13:37:19.303Z,9.93
2019-03-06T13:39:48.743Z,6.50
2019-03-06T13:42:18.890Z,5.50
2019-03-06T13:44:48.662Z,7.03
2019-03-06T13:47:19.760Z,7.27
2019-03-06T13:49:49.573Z,6.70
2019-03-06T13:52:19.638Z,5.53
2019-03-06T13:54:49.671Z,4.70
2019-03-06T13:57:20.042Z,4.33
2019-03-06T13:59:50.093Z,6.27
2019-03-06T14:02:19.963Z,6.67
2019-03-06T14:04:50.647Z,4.53
2019-03-06T14:07:20.816Z,4.77
2019-03-06T14:09:50.491Z,3.57
2019-03-06T14:12:20.275Z,3.53
2019-03-06T14:14:49.874Z,7.57
2019-03-06T14:17:20.118Z,3.93
2019-03-06T14:19:50.607Z,4.70
2019-03-06T14:22:20.421Z,5.27
2019-03-06T14:25:08.369Z,3.53
2019-03-06T14:27:48.211Z,4.23
2019-03-06T14:30:19.037Z,5.93
2019-03-06T14:32:49.515Z,3.77
2019-03-06T14:35:19.426Z,3.97
2019-03-06T14:37:49.477Z,4.90
2019-03-06T14:40:26.004Z,3.40
2019-03-06T14:42:56.341Z,3.83
2019-03-06T14:45:26.369Z,3.37
2019-03-06T14:47:56.499Z,6.47
2019-03-06T14:50:26.914Z,2.97
2019-03-06T14:52:56.670Z,3.50
2019-03-06T14:55:26.607Z,3.40
2019-03-06T14:57:57.481Z,3.50
2019-03-06T15:00:28.062Z,6.17
2019-03-06T15:03:04.890Z,3.33
2019-03-06T15:05:36.201Z,3.47
2019-03-06T15:08:07.493Z,8.07
2019-03-06T15:10:42.858Z,6.40
2019-03-06T15:13:10.429Z,4.00
2019-03-06T15:15:39.812Z,2.83
2019-03-06T15:18:11.212Z,10.10
2019-03-06T15:20:41.386Z,3.97
2019-03-06T15:23:11.683Z,3.20
2019-03-06T15:25:41.393Z,3.23
2019-03-06T15:28:17.647Z,3.23
2019-03-06T15:30:48.805Z,3.90
2019-03-06T15:33:26.809Z,3.33
2019-03-06T15:35:57.436Z,4.47
2019-03-06T15:38:35.434Z,3.67
2019-03-06T15:42:00.316Z,3.47
2019-03-06T15:47:56.539Z,3.07
2019-03-06T15:50:27.738Z,3.60
2019-03-06T15:53:05.000Z,4.00
2019-03-06T15:55:40.995Z,3.97
2019-03-06T15:58:18.155Z,4.20
2019-03-06T16:00:51.833Z,2.73
2019-03-06T16:03:22.077Z,4.37
2019-03-06T16:05:52.935Z,3.03
2019-03-06T16:08:22.616Z,5.80
2019-03-06T16:10:53.194Z,2.80
2019-03-06T16:13:23.235Z,2.60
2019-03-06T16:15:53.222Z,2.83
2019-03-06T16:18:22.956Z,5.07
2019-03-06T16:20:53.108Z,2.57
2019-03-06T16:23:23.030Z,4.33
2019-03-06T16:25:52.875Z,2.53
2019-03-06T16:28:22.796Z,3.33
2019-03-06T16:30:53.322Z,4.23
2019-03-06T16:33:23.024Z,4.30
2019-03-06T16:35:53.051Z,6.67
2019-03-06T16:38:23.999Z,2.50
2019-03-06T16:40:58.070Z,2.80
2019-03-06T16:43:34.975Z,7.00
2019-03-06T16:46:05.011Z,6.37
2019-03-06T16:48:35.478Z,4.60
2019-03-06T16:51:07.457Z,6.33
2019-03-06T16:53:37.883Z,3.47
2019-03-06T16:56:08.399Z,2.77
2019-03-06T16:58:39.302Z,2.67
2019-03-06T17:01:12.263Z,3.00
2019-03-06T17:03:42.548Z,4.03
2019-03-06T17:06:12.889Z,3.73
2019-03-06T17:08:43.416Z,3.20
2019-03-06T17:11:14.790Z,2.80
2019-03-06T17:13:49.720Z,3.00
2019-03-06T17:16:20.794Z,3.33
2019-03-06T17:19:18.070Z,3.77
2019-03-06T17:21:48.228Z,3.33
2019-03-06T17:24:21.933Z,3.07
2019-03-06T17:29:50.639Z,3.43
2019-03-06T17:32:22.847Z,3.47
2019-03-06T17:34:53.244Z,7.03
2019-03-06T17:37:23.613Z,8.77
2019-03-06T17:39:55.128Z,6.03
2019-03-06T17:42:26.424Z,6.10
2019-03-06T17:45:01.058Z,3.90
2019-03-06T17:47:31.695Z,5.50
2019-03-06T17:50:02.641Z,4.30
2019-03-06T17:52:32.984Z,4.60
2019-03-06T17:55:03.561Z,3.90
2019-03-06T17:57:33.767Z,4.97
2019-03-06T18:00:16.465Z,4.07
2019-03-06T18:02:38.685Z,7.57
2019-03-06T18:05:17.830Z,10.13
2019-03-06T18:07:59.829Z,4.30
2019-03-06T18:10:30.259Z,5.07
2019-03-06T18:13:00.837Z,5.67
2019-03-06T18:15:31.470Z,4.43
2019-03-06T18:18:01.697Z,6.67
2019-03-06T18:20:36.109Z,4.97
2019-03-06T18:23:06.340Z,5.03
2019-03-06T18:25:36.152Z,4.70
2019-03-06T18:28:06.048Z,4.17
2019-03-06T18:30:37.281Z,8.07
2019-03-06T18:33:08.967Z,9.87
2019-03-06T18:35:39.457Z,4.67
2019-03-06T18:38:26.211Z,4.80
2019-03-06T18:40:55.968Z,6.07
2019-03-06T18:43:27.021Z,6.53
2019-03-06T18:45:58.638Z,11.13
2019-03-06T18:48:38.901Z,5.23
2019-03-06T18:51:21.317Z,6.80
2019-03-06T18:53:48.396Z,8.07
2019-03-06T18:56:21.827Z,5.77
2019-03-06T18:58:52.427Z,4.50
2019-03-06T19:01:44.660Z,5.10
2019-03-06T19:07:31.016Z,7.90
2019-03-06T19:10:30.681Z,6.27
2019-03-06T19:13:01.525Z,6.73
2019-03-06T19:15:32.678Z,5.80
2019-03-06T19:18:12.184Z,4.97
2019-03-06T19:20:48.826Z,5.10
2019-03-06T19:23:36.726Z,7.67
2019-03-06T19:32:47.744Z,5.73
2019-03-06T19:38:11.930Z,6.67
2019-03-06T19:40:42.415Z,8.20
2019-03-06T19:43:22.612Z,9.60
2019-03-06T19:45:55.597Z,6.10
2019-03-06T19:48:27.524Z,5.20
2019-03-06T19:50:57.439Z,7.53
2019-03-06T19:53:27.507Z,6.90
2019-03-06T19:55:58.203Z,7.00
2019-03-06T19:58:28.762Z,7.33
2019-03-06T20:00:58.294Z,5.27
2019-03-06T20:03:28.287Z,5.33
2019-03-06T20:05:58.404Z,5.17
2019-03-06T20:08:28.327Z,5.23
2019-03-06T20:10:57.847Z,6.77
2019-03-06T20:13:49.351Z,7.37
2019-03-06T20:16:19.265Z,5.97
2019-03-06T20:18:49.913Z,4.73
2019-03-06T20:21:20.245Z,6.20
2019-03-06T20:23:49.873Z,5.00
2019-03-06T20:26:19.839Z,5.27
2019-03-06T20:28:50.992Z,5.17
2019-03-06T20:31:20.471Z,5.00
2019-03-06T20:33:51.602Z,8.43
2019-03-06T20:36:21.455Z,5.47
2019-03-06T20:38:51.719Z,5.63
2019-03-06T20:41:26.099Z,4.27
2019-03-06T20:43:57.360Z,4.60
2019-03-06T20:46:27.784Z,5.53
2019-03-06T20:48:57.612Z,5.17
2019-03-06T20:51:27.467Z,4.80
2019-03-06T20:53:57.795Z,4.97
2019-03-06T20:56:33.937Z,4.67
2019-03-06T20:59:04.292Z,7.50
2019-03-06T21:01:34.974Z,7.27
2019-03-06T21:04:05.115Z,4.70
2019-03-06T21:06:37.972Z,3.93
2019-03-06T21:09:08.433Z,4.80
2019-03-06T21:11:38.138Z,4.57
2019-03-06T21:14:08.333Z,4.47
2019-03-06T21:16:37.987Z,4.47
2019-03-06T21:19:07.746Z,5.17
2019-03-06T21:21:39.842Z,5.30
2019-03-06T21:24:10.161Z,4.80
2019-03-06T21:26:40.455Z,4.23
2019-03-06T21:29:15.744Z,4.33
2019-03-06T21:31:46.234Z,4.30
2019-03-06T21:34:15.969Z,5.33
2019-03-06T21:36:45.879Z,5.53
2019-03-06T21:39:33.603Z,4.33
2019-03-06T21:42:05.792Z,4.47
2019-03-06T21:44:36.040Z,4.57
2019-03-06T21:47:05.991Z,4.83
2019-03-06T21:49:35.445Z,5.37
2019-03-06T21:52:05.498Z,5.57
2019-03-06T21:54:35.086Z,3.97
2019-03-06T21:57:04.874Z,4.20
2019-03-06T21:59:35.241Z,3.93
2019-03-06T22:02:05.858Z,4.10
2019-03-06T22:04:37.527Z,4.00
2019-03-06T22:07:07.723Z,4.10
2019-03-06T22:09:37.429Z,6.50
2019-03-06T22:12:07.291Z,5.43
2019-03-06T22:14:37.260Z,4.70
2019-03-06T22:17:10.287Z,7.50
2019-03-06T22:19:39.962Z,3.87
2019-03-06T22:22:10.119Z,3.63
2019-03-06T22:24:40.113Z,3.70
2019-03-06T22:30:39.023Z,3.80
2019-03-06T22:33:09.017Z,5.17
2019-03-06T22:35:41.332Z,3.37
2019-03-06T22:38:12.695Z,3.77
2019-03-06T22:40:42.594Z,3.37
2019-03-06T22:43:12.511Z,3.33
2019-03-06T22:45:42.476Z,3.53
2019-03-06T22:48:12.782Z,3.63
2019-03-06T22:51:01.391Z,3.17
2019-03-06T22:53:32.010Z,3.37
2019-03-06T22:56:02.183Z,5.67
2019-03-06T22:58:32.479Z,5.03
2019-03-06T23:01:09.049Z,3.30
2019-03-06T23:03:39.272Z,4.07
2019-03-06T23:06:10.238Z,2.90
2019-03-06T23:08:39.971Z,4.63
2019-03-06T23:11:11.387Z,3.07
2019-03-06T23:13:44.444Z,3.47
2019-03-06T23:16:14.841Z,3.60
2019-03-06T23:18:46.818Z,2.83
2019-03-06T23:21:16.784Z,3.17
2019-03-06T23:23:47.313Z,3.83
2019-03-06T23:26:17.649Z,3.20
2019-03-06T23:28:47.110Z,3.40
2019-03-06T23:31:17.655Z,3.07
2019-03-06T23:33:49.032Z,6.40
2019-03-06T23:36:19.853Z,3.10
2019-03-06T23:38:52.356Z,4.50
2019-03-06T23:41:22.044Z,3.40
2019-03-06T23:43:52.190Z,2.93
2019-03-06T23:49:10.566Z,2.73
2019-03-06T23:51:51.772Z,2.83
2019-03-06T23:54:23.493Z,5.63
2019-03-06T23:56:53.250Z,3.20
2019-03-06T23:59:23.166Z,3.33
